createdAt,value
2023-03-06T00:01:07.211Z,0.60
2023-03-06T00:03:34.650Z,0.70
2023-03-06T00:06:02.172Z,0.70
2023-03-06T00:08:30.972Z,0.60
2023-03-06T00:10:58.385Z,0.40
2023-03-06T00:13:26.773Z,0.40
2023-03-06T00:15:53.853Z,0.50
2023-03-06T00:18:20.693Z,0.50
2023-03-06T00:20:47.748Z,0.50
2023-03-06T00:23:15.132Z,0.30
2023-03-06T00:25:46.130Z,0.30
2023-03-06T00:28:14.954Z,0.30
2023-03-06T00:30:42.998Z,0.40
2023-03-06T00:33:10.619Z,0.40
2023-03-06T00:35:39.318Z,0.40
2023-03-06T00:38:06.546Z,0.40
2023-03-06T00:40:33.911Z,0.50
2023-03-06T00:43:00.680Z,0.50
2023-03-06T00:45:27.881Z,0.60
2023-03-06T00:47:54.679Z,0.80
2023-03-06T00:50:21.811Z,1.00
2023-03-06T00:52:49.121Z,1.00
2023-03-06T00:55:16.551Z,1.00
2023-03-06T00:57:43.331Z,0.90
2023-03-06T01:00:12.345Z,0.90
2023-03-06T01:02:39.400Z,0.90
2023-03-06T01:05:07.351Z,0.90
2023-03-06T01:07:36.560Z,0.80
2023-03-06T01:10:05.780Z,0.90
2023-03-06T01:12:32.983Z,0.80
2023-03-06T01:14:59.780Z,0.80
2023-03-06T01:17:26.651Z,0.80
2023-03-06T01:19:53.422Z,0.80
2023-03-06T01:22:20.605Z,0.80
2023-03-06T01:24:47.744Z,1.10
2023-03-06T01:27:14.940Z,1.30
2023-03-06T01:29:42.048Z,1.10
2023-03-06T01:32:10.302Z,1.00
2023-03-06T01:34:37.401Z,1.00
2023-03-06T01:37:04.544Z,1.40
2023-03-06T01:39:32.030Z,0.90
2023-03-06T01:41:59.159Z,1.00
2023-03-06T01:44:25.923Z,1.20
2023-03-06T01:46:53.120Z,1.50
2023-03-06T01:49:28.426Z,1.80
2023-03-06T01:52:04.077Z,2.00
2023-03-06T01:54:54.568Z,2.10
2023-03-06T01:57:26.117Z,2.10
2023-03-06T02:00:00.297Z,2.00
2023-03-06T02:02:27.128Z,1.90
2023-03-06T02:04:54.406Z,1.60
2023-03-06T02:07:22.090Z,1.60
2023-03-06T02:09:48.841Z,1.30
2023-03-06T02:12:19.970Z,1.10
2023-03-06T02:14:48.157Z,1.10
2023-03-06T02:17:18.570Z,1.10
2023-03-06T02:19:53.889Z,1.20
2023-03-06T02:22:22.542Z,1.40
2023-03-06T02:25:19.706Z,1.60
2023-03-06T02:27:47.315Z,1.60
2023-03-06T02:30:16.534Z,1.80
2023-03-06T02:32:43.319Z,1.50
2023-03-06T02:35:21.091Z,1.40
2023-03-06T02:37:48.016Z,1.30
2023-03-06T02:40:16.731Z,1.40
2023-03-06T02:42:50.760Z,1.50
2023-03-06T02:45:30.772Z,1.40
2023-03-06T02:47:57.485Z,1.40
2023-03-06T02:50:24.756Z,1.50
2023-03-06T02:52:51.960Z,1.50
2023-03-06T02:55:18.815Z,1.40
2023-03-06T02:57:46.044Z,1.20
2023-03-06T03:00:14.313Z,1.20
2023-03-06T03:02:41.942Z,1.10
2023-03-06T03:05:09.079Z,1.00
2023-03-06T03:07:36.412Z,1.10
2023-03-06T03:10:03.853Z,1.10
2023-03-06T03:12:30.666Z,0.90
2023-03-06T03:14:57.877Z,1.10
2023-03-06T03:17:24.712Z,1.10
2023-03-06T03:19:51.830Z,1.10
2023-03-06T03:22:19.607Z,1.20
2023-03-06T03:24:47.519Z,1.10
2023-03-06T03:27:14.783Z,1.10
2023-03-06T03:29:42.837Z,1.10
2023-03-06T03:32:10.339Z,1.30
2023-03-06T03:34:37.162Z,1.40
2023-03-06T03:37:04.558Z,1.40
2023-03-06T03:39:31.395Z,1.30
2023-03-06T03:41:58.518Z,1.30
2023-03-06T03:44:25.718Z,1.10
2023-03-06T03:46:52.964Z,1.10
2023-03-06T03:49:19.757Z,1.10
2023-03-06T03:51:46.910Z,1.20
2023-03-06T03:54:13.744Z,1.10
2023-03-06T03:56:42.191Z,1.10
2023-03-06T03:59:09.380Z,1.10
2023-03-06T04:01:39.366Z,1.10
2023-03-06T04:04:06.937Z,1.00
2023-03-06T04:06:33.796Z,1.00
2023-03-06T04:09:00.916Z,1.10
2023-03-06T04:11:27.698Z,1.20
2023-03-06T04:13:54.428Z,1.00
2023-03-06T04:16:21.258Z,1.00
2023-03-06T04:18:48.392Z,1.10
2023-03-06T04:21:15.311Z,1.00
2023-03-06T04:23:42.446Z,1.10
2023-03-06T04:26:09.890Z,1.00
2023-03-06T04:28:37.028Z,1.10
2023-03-06T04:31:03.918Z,1.10
2023-03-06T04:33:30.968Z,1.00
2023-03-06T04:35:58.138Z,1.00
2023-03-06T04:38:25.272Z,1.10
2023-03-06T04:40:51.996Z,1.20
2023-03-06T04:43:19.384Z,1.20
2023-03-06T04:45:46.160Z,1.10
2023-03-06T04:48:15.727Z,1.10
2023-03-06T04:50:42.666Z,1.20
2023-03-06T04:53:10.026Z,1.30
2023-03-06T04:55:37.107Z,1.30
2023-03-06T04:58:03.831Z,1.20
2023-03-06T05:00:31.991Z,1.20
2023-03-06T05:03:01.464Z,1.40
2023-03-06T05:05:28.392Z,1.50
2023-03-06T05:07:56.511Z,1.50
2023-03-06T05:10:23.501Z,1.40
2023-03-06T05:12:50.659Z,1.60
2023-03-06T05:15:20.075Z,1.70
2023-03-06T05:17:48.053Z,1.70
2023-03-06T05:20:16.809Z,1.70
2023-03-06T05:22:44.692Z,1.80
2023-03-06T05:25:14.277Z,1.70
2023-03-06T05:27:41.223Z,1.60
2023-03-06T05:30:10.560Z,1.60
2023-03-06T05:32:37.810Z,1.80
2023-03-06T05:35:05.815Z,1.90
2023-03-06T05:37:33.133Z,1.80
2023-03-06T05:40:00.151Z,1.90
2023-03-06T05:42:28.774Z,1.80
2023-03-06T05:44:55.969Z,1.80
2023-03-06T05:47:22.756Z,1.80
2023-03-06T05:49:49.984Z,1.90
2023-03-06T05:52:17.894Z,2.00
2023-03-06T05:54:45.037Z,1.90
2023-03-06T05:57:11.984Z,1.90
2023-03-06T05:59:38.747Z,2.00
2023-03-06T06:02:06.165Z,2.00
2023-03-06T06:04:33.012Z,2.10
2023-03-06T06:07:01.070Z,2.10
2023-03-06T06:09:29.064Z,2.20
2023-03-06T06:12:01.706Z,2.30
2023-03-06T06:14:30.572Z,2.30
2023-03-06T06:16:57.354Z,2.40
2023-03-06T06:19:24.224Z,2.40
2023-03-06T06:21:54.252Z,2.50
2023-03-06T06:24:23.863Z,2.50
2023-03-06T06:26:53.206Z,2.50
2023-03-06T06:29:20.715Z,2.70
2023-03-06T06:31:47.829Z,2.80
2023-03-06T06:34:14.767Z,2.80
2023-03-06T06:36:42.000Z,3.00
2023-03-06T06:39:10.009Z,3.10
2023-03-06T06:42:05.948Z,3.30
2023-03-06T06:44:25.508Z,3.30
2023-03-06T06:47:21.995Z,3.40
2023-03-06T06:49:40.081Z,3.40
2023-03-06T06:52:07.637Z,3.20
2023-03-06T06:54:34.996Z,3.20
2023-03-06T06:57:02.234Z,3.20
2023-03-06T06:59:29.463Z,3.30
2023-03-06T07:01:56.301Z,3.60
2023-03-06T07:04:23.210Z,3.80
2023-03-06T07:06:57.691Z,4.10
2023-03-06T07:09:25.385Z,4.20
2023-03-06T07:11:52.211Z,4.30
2023-03-06T07:14:19.561Z,4.30
2023-03-06T07:16:46.342Z,4.40
2023-03-06T07:19:15.710Z,4.70
2023-03-06T07:21:42.826Z,4.80
2023-03-06T07:24:10.414Z,5.10
2023-03-06T07:26:37.381Z,5.10
2023-03-06T07:29:05.005Z,4.80
2023-03-06T07:31:32.080Z,4.90
2023-03-06T07:33:59.033Z,4.90
2023-03-06T07:36:25.928Z,5.20
2023-03-06T07:38:53.132Z,5.30
2023-03-06T07:41:22.525Z,5.30
2023-03-06T07:43:52.191Z,5.40
2023-03-06T07:46:19.541Z,5.50
2023-03-06T07:48:47.849Z,5.50
2023-03-06T07:51:22.588Z,5.60
2023-03-06T07:53:50.354Z,6.00
2023-03-06T07:56:17.197Z,6.00
2023-03-06T07:58:47.832Z,6.30
2023-03-06T08:01:17.985Z,6.50
2023-03-06T08:03:45.759Z,6.90
2023-03-06T08:06:24.514Z,7.10
2023-03-06T08:08:53.868Z,7.20
2023-03-06T08:11:22.575Z,7.50
2023-03-06T08:13:53.052Z,7.10
2023-03-06T08:16:29.020Z,7.00
2023-03-06T08:18:56.762Z,7.10
2023-03-06T08:21:26.569Z,7.20
2023-03-06T08:23:53.835Z,7.20
2023-03-06T08:26:31.897Z,7.40
2023-03-06T08:29:00.873Z,7.20
2023-03-06T08:31:32.285Z,7.20
2023-03-06T08:34:02.777Z,7.50
2023-03-06T08:36:30.924Z,7.70
2023-03-06T08:38:58.799Z,7.80
2023-03-06T08:41:26.368Z,8.00
2023-03-06T08:43:53.727Z,8.40
2023-03-06T08:46:24.254Z,8.70
2023-03-06T08:48:51.294Z,8.80
2023-03-06T08:51:19.322Z,8.50
2023-03-06T08:53:46.420Z,8.50
2023-03-06T08:56:22.171Z,8.80
2023-03-06T08:58:49.748Z,9.10
2023-03-06T09:01:22.682Z,9.30
2023-03-06T09:03:50.790Z,8.90
2023-03-06T09:06:18.132Z,9.30
2023-03-06T09:08:44.926Z,9.40
2023-03-06T09:11:13.962Z,9.50
2023-03-06T09:13:41.529Z,9.40
2023-03-06T09:16:09.524Z,9.40
2023-03-06T09:18:37.447Z,9.30
2023-03-06T09:21:05.672Z,9.70
2023-03-06T09:23:32.943Z,9.90
2023-03-06T09:26:01.408Z,10.00
2023-03-06T09:28:28.715Z,9.70
2023-03-06T09:30:55.903Z,9.50
2023-03-06T09:33:23.187Z,9.40
2023-03-06T09:35:57.982Z,9.10
2023-03-06T09:38:27.355Z,9.00
2023-03-06T09:43:47.387Z,8.90
2023-03-06T09:46:25.163Z,8.70
2023-03-06T09:49:02.522Z,8.70
2023-03-06T09:51:57.421Z,8.50
2023-03-06T09:54:35.022Z,8.50
2023-03-06T09:57:03.210Z,8.60
2023-03-06T09:59:31.620Z,8.70
2023-03-06T10:02:12.679Z,8.90
2023-03-06T10:04:46.399Z,8.90
2023-03-06T10:07:28.136Z,9.00
2023-03-06T10:10:00.236Z,9.10
2023-03-06T10:12:32.500Z,9.10
2023-03-06T10:15:18.475Z,9.00
2023-03-06T10:17:45.826Z,9.00
2023-03-06T10:20:23.469Z,9.00
2023-03-06T10:23:01.107Z,8.80
2023-03-06T10:25:38.247Z,8.90
2023-03-06T10:28:21.710Z,9.30
2023-03-06T10:31:00.465Z,9.30
2023-03-06T10:33:44.965Z,9.20
2023-03-06T10:36:17.351Z,9.30
2023-03-06T10:38:45.688Z,9.30
2023-03-06T10:41:12.396Z,9.40
2023-03-06T10:43:45.016Z,9.40
2023-03-06T10:46:14.828Z,9.30
2023-03-06T10:48:42.698Z,9.30
2023-03-06T10:51:18.037Z,9.20
2023-03-06T10:54:14.463Z,9.20
2023-03-06T10:56:43.718Z,9.20
2023-03-06T10:59:15.202Z,9.20
2023-03-06T11:01:44.910Z,9.30
2023-03-06T11:04:14.785Z,9.50
2023-03-06T11:06:41.988Z,9.30
2023-03-06T11:09:26.365Z,9.30
2023-03-06T11:12:13.682Z,9.40
2023-03-06T11:14:40.552Z,9.40
2023-03-06T11:17:28.178Z,9.60
2023-03-06T11:20:27.809Z,9.60
2023-03-06T11:23:01.894Z,9.00
2023-03-06T11:25:57.075Z,8.70
2023-03-06T11:28:26.232Z,8.80
2023-03-06T11:31:13.562Z,8.90
2023-03-06T11:33:51.818Z,9.00
2023-03-06T11:36:29.729Z,8.90
2023-03-06T11:38:56.498Z,9.00
2023-03-06T11:41:32.788Z,9.30
2023-03-06T11:44:24.775Z,9.70
2023-03-06T11:47:02.902Z,9.60
2023-03-06T11:49:35.043Z,9.50
2023-03-06T11:52:09.042Z,9.70
2023-03-06T11:54:36.621Z,9.60
2023-03-06T11:57:17.765Z,9.40
2023-03-06T12:00:01.763Z,9.40
2023-03-06T12:03:27.701Z,9.60
2023-03-06T12:06:00.644Z,9.70
2023-03-06T12:08:52.483Z,9.90
2023-03-06T12:11:33.339Z,10.00
2023-03-06T12:14:26.222Z,9.80
2023-03-06T12:17:25.669Z,9.90
2023-03-06T12:19:58.636Z,9.80
2023-03-06T12:22:58.043Z,10.10
2023-03-06T12:25:45.390Z,10.10
2023-03-06T12:28:22.927Z,10.10
2023-03-06T12:31:03.650Z,9.90
2023-03-06T12:33:46.296Z,9.80
2023-03-06T12:36:30.031Z,9.60
2023-03-06T12:39:05.505Z,9.60
2023-03-06T12:41:51.135Z,9.40
2023-03-06T12:44:37.177Z,9.30
2023-03-06T12:47:10.638Z,9.20
2023-03-06T12:49:43.343Z,9.10
2023-03-06T12:52:30.747Z,9.10
2023-03-06T12:55:00.193Z,9.10
2023-03-06T12:57:27.592Z,9.00
2023-03-06T12:59:55.829Z,8.90
2023-03-06T13:02:28.636Z,8.90
2023-03-06T13:05:10.452Z,8.80
2023-03-06T13:07:50.075Z,8.80
2023-03-06T13:10:27.222Z,8.90
2023-03-06T13:12:55.946Z,9.00
2023-03-06T13:15:42.454Z,9.00
2023-03-06T13:18:21.455Z,8.80
2023-03-06T13:20:52.760Z,8.70
2023-03-06T13:23:38.364Z,8.30
2023-03-06T13:26:10.091Z,8.10
2023-03-06T13:28:47.656Z,7.80
2023-03-06T13:31:28.768Z,7.50
2023-03-06T13:33:59.408Z,7.40
2023-03-06T13:36:39.622Z,7.40
2023-03-06T13:39:10.551Z,7.50
2023-03-06T13:41:57.337Z,7.40
2023-03-06T13:44:24.606Z,7.20
2023-03-06T13:47:08.424Z,6.80
2023-03-06T13:49:36.128Z,6.40
2023-03-06T13:52:29.260Z,6.00
2023-03-06T13:55:02.479Z,5.90
2023-03-06T13:57:44.349Z,5.70
2023-03-06T14:00:43.566Z,5.50
2023-03-06T14:03:25.703Z,5.30
2023-03-06T14:05:52.777Z,5.10
2023-03-06T14:08:32.603Z,4.90
2023-03-06T14:11:06.034Z,5.00
2023-03-06T14:13:46.571Z,5.30
2023-03-06T14:16:24.168Z,5.20
2023-03-06T14:18:54.047Z,5.60
2023-03-06T14:21:40.022Z,5.70
2023-03-06T14:24:07.173Z,5.90
2023-03-06T14:26:41.693Z,6.20
2023-03-06T14:29:21.361Z,6.30
2023-03-06T14:31:54.400Z,6.40
2023-03-06T14:34:28.049Z,6.30
2023-03-06T14:37:08.148Z,6.50
2023-03-06T14:39:40.625Z,6.80
2023-03-06T14:42:28.706Z,6.90
2023-03-06T14:45:21.817Z,7.20
2023-03-06T14:47:53.168Z,7.40
2023-03-06T14:50:25.422Z,7.20
2023-03-06T14:53:21.393Z,7.10
2023-03-06T14:55:53.972Z,7.00
2023-03-06T14:58:44.986Z,6.70
2023-03-06T15:01:16.396Z,6.70
2023-03-06T15:03:47.946Z,7.00
2023-03-06T15:06:29.789Z,7.20
2023-03-06T15:09:02.858Z,7.00
2023-03-06T15:11:51.665Z,6.80
2023-03-06T15:14:20.659Z,6.70
2023-03-06T15:16:47.646Z,6.80
2023-03-06T15:19:20.403Z,6.70
2023-03-06T15:21:52.084Z,6.50
2023-03-06T15:24:35.477Z,6.50
2023-03-06T15:27:05.995Z,6.50
2023-03-06T15:29:35.395Z,6.40
2023-03-06T15:32:31.819Z,6.20
2023-03-06T15:35:32.389Z,6.00
2023-03-06T15:38:00.399Z,6.10
2023-03-06T15:40:33.576Z,6.20
2023-03-06T15:43:04.022Z,6.00
2023-03-06T15:45:32.508Z,6.40
2023-03-06T15:47:59.284Z,6.40
2023-03-06T15:50:28.818Z,6.50
2023-03-06T15:52:56.143Z,6.40
2023-03-06T15:55:25.895Z,6.50
2023-03-06T15:58:01.053Z,6.40
2023-03-06T16:00:38.588Z,6.40
2023-03-06T16:03:07.860Z,6.20
2023-03-06T16:05:34.633Z,6.00
2023-03-06T16:08:01.398Z,6.00
2023-03-06T16:10:31.944Z,6.00
2023-03-06T16:13:06.247Z,5.90
2023-03-06T16:15:40.652Z,5.70
2023-03-06T16:18:11.144Z,5.80
2023-03-06T16:20:38.565Z,5.80
2023-03-06T16:23:08.045Z,5.70
2023-03-06T16:25:38.548Z,5.70
2023-03-06T16:28:08.701Z,5.70
2023-03-06T16:30:37.010Z,5.50
2023-03-06T16:33:04.559Z,5.60
2023-03-06T16:35:31.372Z,5.40
2023-03-06T16:37:59.913Z,5.50
2023-03-06T16:40:37.418Z,5.60
2023-03-06T16:43:05.389Z,5.70
2023-03-06T16:45:39.859Z,5.70
2023-03-06T16:48:07.390Z,5.70
2023-03-06T16:50:38.751Z,5.70
2023-03-06T16:53:06.981Z,5.50
2023-03-06T16:55:33.798Z,5.50
2023-03-06T16:58:00.711Z,5.60
2023-03-06T17:00:31.123Z,5.60
2023-03-06T17:02:58.167Z,5.50
2023-03-06T17:05:27.747Z,5.40
2023-03-06T17:07:57.026Z,5.20
2023-03-06T17:10:26.359Z,5.00
2023-03-06T17:12:55.634Z,5.30
2023-03-06T17:15:23.198Z,5.40
2023-03-06T17:17:51.748Z,5.50
2023-03-06T17:20:19.712Z,5.50
2023-03-06T17:22:46.473Z,5.20
2023-03-06T17:25:13.601Z,5.10
2023-03-06T17:27:40.394Z,5.30
2023-03-06T17:30:07.734Z,5.50
2023-03-06T17:32:34.873Z,5.40
2023-03-06T17:35:03.494Z,5.40
2023-03-06T17:37:31.826Z,5.50
2023-03-06T17:40:01.811Z,5.40
2023-03-06T17:42:28.901Z,5.30
2023-03-06T17:44:55.682Z,5.20
2023-03-06T17:47:22.443Z,5.30
2023-03-06T17:49:49.612Z,5.20
2023-03-06T17:52:16.388Z,5.30
2023-03-06T17:54:43.158Z,5.40
2023-03-06T17:57:09.890Z,5.30
2023-03-06T17:59:37.088Z,5.10
2023-03-06T18:02:06.371Z,4.90
2023-03-06T18:04:35.882Z,4.80
2023-03-06T18:07:02.654Z,4.70
2023-03-06T18:09:29.869Z,4.60
2023-03-06T18:11:57.174Z,4.50
2023-03-06T18:14:24.396Z,4.60
2023-03-06T18:16:54.586Z,4.40
2023-03-06T18:19:21.418Z,4.30
2023-03-06T18:21:50.596Z,4.20
2023-03-06T18:24:17.389Z,4.20
2023-03-06T18:26:44.140Z,4.10
2023-03-06T18:29:11.009Z,3.90
2023-03-06T18:31:39.916Z,4.00
2023-03-06T18:34:14.850Z,3.90
2023-03-06T18:36:43.586Z,3.60
2023-03-06T18:39:16.260Z,3.70
2023-03-06T18:41:43.245Z,3.60
2023-03-06T18:44:14.806Z,3.70
2023-03-06T18:46:41.942Z,3.60
2023-03-06T18:49:10.191Z,3.70
2023-03-06T18:51:38.033Z,3.70
2023-03-06T18:54:06.885Z,3.90
2023-03-06T18:56:34.784Z,4.00
2023-03-06T18:59:07.469Z,4.00
2023-03-06T19:01:34.625Z,3.90
2023-03-06T19:04:03.389Z,3.90
2023-03-06T19:06:31.995Z,3.90
2023-03-06T19:09:02.137Z,4.00
2023-03-06T19:11:29.368Z,4.00
2023-03-06T19:13:56.461Z,4.00
2023-03-06T19:16:29.067Z,3.90
2023-03-06T19:18:57.902Z,3.80
2023-03-06T19:21:29.560Z,3.90
2023-03-06T19:23:59.021Z,4.10
2023-03-06T19:26:28.386Z,4.10
2023-03-06T19:28:55.806Z,4.00
2023-03-06T19:31:26.665Z,3.90
2023-03-06T19:33:55.299Z,3.80
2023-03-06T19:36:26.765Z,3.60
2023-03-06T19:39:05.148Z,3.50
2023-03-06T19:41:33.870Z,3.40
2023-03-06T19:44:03.287Z,3.30
2023-03-06T19:46:32.105Z,3.20
2023-03-06T19:49:01.900Z,3.30
2023-03-06T19:51:36.220Z,3.40
2023-03-06T19:54:03.469Z,3.40
2023-03-06T19:56:33.946Z,3.50
2023-03-06T19:59:01.603Z,3.50
2023-03-06T20:01:29.324Z,3.50
2023-03-06T20:04:01.173Z,3.50
2023-03-06T20:06:31.960Z,3.50
2023-03-06T20:09:00.693Z,3.60
2023-03-06T20:11:32.430Z,3.70
2023-03-06T20:14:01.135Z,3.60
2023-03-06T20:16:29.458Z,3.40
2023-03-06T20:18:58.964Z,3.50
2023-03-06T20:21:28.024Z,3.50
2023-03-06T20:24:01.412Z,3.50
2023-03-06T20:26:29.362Z,3.60
2023-03-06T20:28:57.295Z,3.30
2023-03-06T20:31:27.139Z,3.00
2023-03-06T20:33:57.147Z,2.80
2023-03-06T20:36:30.489Z,2.70
2023-03-06T20:39:00.225Z,2.60
2023-03-06T20:41:28.439Z,2.50
2023-03-06T20:43:55.869Z,2.60
2023-03-06T20:46:23.973Z,2.70
2023-03-06T20:48:52.944Z,2.70
2023-03-06T20:51:28.772Z,2.40
2023-03-06T20:53:56.324Z,2.50
2023-03-06T20:56:25.840Z,2.50
2023-03-06T20:58:53.315Z,2.50
2023-03-06T21:01:27.263Z,2.50
2023-03-06T21:03:54.671Z,2.60
2023-03-06T21:06:21.861Z,2.50
2023-03-06T21:08:49.363Z,2.50
2023-03-06T21:11:17.356Z,2.20
2023-03-06T21:13:44.897Z,2.00
2023-03-06T21:16:19.007Z,2.10
2023-03-06T21:18:47.073Z,2.20
2023-03-06T21:21:20.920Z,2.20
2023-03-06T21:23:49.153Z,2.50
2023-03-06T21:26:19.043Z,2.50
2023-03-06T21:28:47.390Z,2.30
2023-03-06T21:31:16.279Z,2.30
2023-03-06T21:33:43.498Z,2.40
2023-03-06T21:36:11.056Z,2.50
2023-03-06T21:38:38.185Z,2.50
2023-03-06T21:41:10.479Z,2.70
2023-03-06T21:43:37.362Z,2.60
2023-03-06T21:46:05.389Z,2.70
2023-03-06T21:48:32.898Z,2.90
2023-03-06T21:51:10.015Z,2.90
2023-03-06T21:53:38.139Z,2.90
2023-03-06T21:56:05.445Z,3.00
2023-03-06T21:58:32.618Z,3.10
2023-03-06T22:00:59.906Z,3.20
2023-03-06T22:03:28.635Z,2.90
2023-03-06T22:05:56.908Z,2.60
2023-03-06T22:08:25.165Z,2.40
2023-03-06T22:10:52.545Z,2.50
2023-03-06T22:13:19.416Z,2.90
2023-03-06T22:15:53.270Z,2.80
2023-03-06T22:18:20.628Z,2.70
2023-03-06T22:20:47.837Z,2.70
2023-03-06T22:23:14.680Z,2.80
2023-03-06T22:25:46.251Z,2.90
2023-03-06T22:28:14.660Z,3.00
2023-03-06T22:30:41.774Z,3.00
2023-03-06T22:33:10.834Z,3.00
2023-03-06T22:35:37.646Z,3.00
2023-03-06T22:38:04.624Z,3.10
2023-03-06T22:40:32.664Z,3.20
2023-03-06T22:42:59.877Z,3.20
2023-03-06T22:45:27.283Z,3.20
2023-03-06T22:48:02.333Z,3.30
2023-03-06T22:50:35.991Z,3.50
2023-03-06T22:53:03.176Z,3.70
2023-03-06T22:55:30.334Z,3.80
2023-03-06T22:57:57.082Z,3.80
2023-03-06T23:00:23.879Z,3.90
2023-03-06T23:02:50.689Z,3.70
2023-03-06T23:05:18.053Z,3.70
2023-03-06T23:07:45.049Z,3.60
2023-03-06T23:10:12.276Z,3.60
2023-03-06T23:12:41.635Z,3.50
2023-03-06T23:15:08.892Z,3.50
2023-03-06T23:17:35.889Z,3.40
2023-03-06T23:20:06.148Z,3.60
2023-03-06T23:22:33.355Z,3.60
2023-03-06T23:25:00.095Z,3.70
2023-03-06T23:27:27.294Z,3.80
2023-03-06T23:29:56.907Z,3.70
2023-03-06T23:32:23.770Z,3.70
2023-03-06T23:34:50.978Z,3.60
2023-03-06T23:37:18.152Z,3.70
2023-03-06T23:39:44.910Z,3.70
2023-03-06T23:42:11.713Z,3.70
2023-03-06T23:44:38.469Z,3.80
2023-03-06T23:47:06.006Z,3.80
2023-03-06T23:49:32.884Z,3.90
2023-03-06T23:52:00.055Z,3.90
2023-03-06T23:54:27.288Z,3.70
2023-03-06T23:56:54.025Z,3.70
2023-03-06T23:59:20.824Z,3.50
